sensor_id;sensor_type;location;lat;lon;timestamp;P1;durP1;ratioP1;P2;durP2;ratioP2
31674;SDS011;18276;45.520;11.018;2022-08-04T00:01:22;5.20;;;3.25;;
31674;SDS011;18276;45.520;11.018;2022-08-04T00:07:07;3.97;;;3.20;;
31674;SDS011;18276;45.520;11.018;2022-08-04T00:10:09;4.95;;;3.20;;
31674;SDS011;18276;45.520;11.018;2022-08-04T00:12:40;6.03;;;3.58;;
31674;SDS011;18276;45.520;11.018;2022-08-04T00:15:10;6.57;;;3.70;;
31674;SDS011;18276;45.520;11.018;2022-08-04T00:17:50;6.22;;;3.08;;
31674;SDS011;18276;45.520;11.018;2022-08-04T00:20:33;4.03;;;3.20;;
31674;SDS011;18276;45.520;11.018;2022-08-04T00:23:04;6.82;;;3.55;;
31674;SDS011;18276;45.520;11.018;2022-08-04T00:25:32;4.22;;;3.20;;
31674;SDS011;18276;45.520;11.018;2022-08-04T00:27:59;8.10;;;3.40;;
31674;SDS011;18276;45.520;11.018;2022-08-04T00:30:30;11.35;;;3.97;;
31674;SDS011;18276;45.520;11.018;2022-08-04T00:32:57;10.45;;;3.30;;
31674;SDS011;18276;45.520;11.018;2022-08-04T00:35:26;8.05;;;3.67;;
31674;SDS011;18276;45.520;11.018;2022-08-04T00:37:54;5.68;;;3.67;;
31674;SDS011;18276;45.520;11.018;2022-08-04T00:40:24;4.10;;;3.47;;
31674;SDS011;18276;45.520;11.018;2022-08-04T01:00:04;10.82;;;3.90;;
31674;SDS011;18276;45.520;11.018;2022-08-04T01:02:52;7.30;;;3.17;;
31674;SDS011;18276;45.520;11.018;2022-08-04T01:05:56;5.82;;;3.45;;
31674;SDS011;18276;45.520;11.018;2022-08-04T01:17:06;5.43;;;3.03;;
31674;SDS011;18276;45.520;11.018;2022-08-04T01:20:06;7.25;;;3.70;;
31674;SDS011;18276;45.520;11.018;2022-08-04T01:25:59;7.10;;;3.75;;
31674;SDS011;18276;45.520;11.018;2022-08-04T01:29:06;5.00;;;3.03;;
31674;SDS011;18276;45.520;11.018;2022-08-04T01:31:49;4.90;;;3.53;;
31674;SDS011;18276;45.520;11.018;2022-08-04T01:34:28;6.28;;;3.03;;
31674;SDS011;18276;45.520;11.018;2022-08-04T01:37:07;10.63;;;3.47;;
31674;SDS011;18276;45.520;11.018;2022-08-04T01:39:43;7.13;;;3.63;;
31674;SDS011;18276;45.520;11.018;2022-08-04T01:44:57;4.70;;;3.70;;
31674;SDS011;18276;45.520;11.018;2022-08-04T01:47:34;5.93;;;3.58;;
31674;SDS011;18276;45.520;11.018;2022-08-04T01:50:12;4.82;;;3.33;;
31674;SDS011;18276;45.520;11.018;2022-08-04T01:52:42;6.45;;;3.67;;
31674;SDS011;18276;45.520;11.018;2022-08-04T01:55:16;9.18;;;3.50;;
31674;SDS011;18276;45.520;11.018;2022-08-04T01:57:44;8.65;;;3.75;;
31674;SDS011;18276;45.520;11.018;2022-08-04T02:00:14;5.85;;;3.92;;
31674;SDS011;18276;45.520;11.018;2022-08-04T02:02:43;7.45;;;3.65;;
31674;SDS011;18276;45.520;11.018;2022-08-04T02:05:15;9.98;;;3.58;;
31674;SDS011;18276;45.520;11.018;2022-08-04T02:13:07;8.25;;;3.95;;
31674;SDS011;18276;45.520;11.018;2022-08-04T02:18:36;4.63;;;3.38;;
31674;SDS011;18276;45.520;11.018;2022-08-04T02:21:27;5.65;;;3.30;;
31674;SDS011;18276;45.520;11.018;2022-08-04T02:24:11;3.80;;;3.40;;
31674;SDS011;18276;45.520;11.018;2022-08-04T02:26:41;4.90;;;3.45;;
31674;SDS011;18276;45.520;11.018;2022-08-04T02:29:18;3.45;;;3.15;;
31674;SDS011;18276;45.520;11.018;2022-08-04T02:31:55;6.20;;;3.50;;
31674;SDS011;18276;45.520;11.018;2022-08-04T02:37:08;6.03;;;4.30;;
31674;SDS011;18276;45.520;11.018;2022-08-04T02:39:37;5.70;;;3.70;;
31674;SDS011;18276;45.520;11.018;2022-08-04T02:42:14;6.25;;;3.95;;
31674;SDS011;18276;45.520;11.018;2022-08-04T02:44:44;6.13;;;3.22;;
31674;SDS011;18276;45.520;11.018;2022-08-04T02:47:16;6.22;;;3.60;;
31674;SDS011;18276;45.520;11.018;2022-08-04T02:49:46;6.85;;;3.58;;
31674;SDS011;18276;45.520;11.018;2022-08-04T02:52:17;8.77;;;3.72;;
31674;SDS011;18276;45.520;11.018;2022-08-04T02:54:46;5.70;;;3.72;;
31674;SDS011;18276;45.520;11.018;2022-08-04T02:57:16;5.57;;;3.70;;
31674;SDS011;18276;45.520;11.018;2022-08-04T03:02:57;3.95;;;3.30;;
31674;SDS011;18276;45.520;11.018;2022-08-04T03:05:26;8.05;;;4.05;;
31674;SDS011;18276;45.520;11.018;2022-08-04T03:11:37;4.25;;;3.40;;
31674;SDS011;18276;45.520;11.018;2022-08-04T03:26:08;4.43;;;3.72;;
31674;SDS011;18276;45.520;11.018;2022-08-04T03:36:37;8.57;;;4.20;;
31674;SDS011;18276;45.520;11.018;2022-08-04T03:49:17;7.03;;;3.88;;
31674;SDS011;18276;45.520;11.018;2022-08-04T04:00:39;5.90;;;3.35;;
31674;SDS011;18276;45.520;11.018;2022-08-04T04:23:59;6.18;;;3.50;;
31674;SDS011;18276;45.520;11.018;2022-08-04T04:32:15;4.68;;;3.15;;
31674;SDS011;18276;45.520;11.018;2022-08-04T04:43:22;5.75;;;3.47;;
31674;SDS011;18276;45.520;11.018;2022-08-04T04:49:13;6.65;;;3.42;;
31674;SDS011;18276;45.520;11.018;2022-08-04T04:55:21;8.60;;;3.17;;
31674;SDS011;18276;45.520;11.018;2022-08-04T04:57:55;10.15;;;3.70;;
31674;SDS011;18276;45.520;11.018;2022-08-04T05:00:33;10.20;;;3.70;;
31674;SDS011;18276;45.520;11.018;2022-08-04T05:03:20;8.65;;;3.95;;
31674;SDS011;18276;45.520;11.018;2022-08-04T05:11:57;8.50;;;3.15;;
31674;SDS011;18276;45.520;11.018;2022-08-04T05:15:09;6.15;;;3.53;;
31674;SDS011;18276;45.520;11.018;2022-08-04T05:17:39;8.73;;;3.60;;
31674;SDS011;18276;45.520;11.018;2022-08-04T05:20:10;8.15;;;3.53;;
31674;SDS011;18276;45.520;11.018;2022-08-04T05:23:04;6.15;;;3.08;;
31674;SDS011;18276;45.520;11.018;2022-08-04T05:25:46;14.43;;;3.58;;
31674;SDS011;18276;45.520;11.018;2022-08-04T05:29:08;7.00;;;3.00;;
31674;SDS011;18276;45.520;11.018;2022-08-04T05:31:23;13.75;;;3.30;;
31674;SDS011;18276;45.520;11.018;2022-08-04T05:34:00;8.68;;;3.70;;
31674;SDS011;18276;45.520;11.018;2022-08-04T05:36:38;5.82;;;3.30;;
31674;SDS011;18276;45.520;11.018;2022-08-04T05:39:10;9.73;;;3.67;;
31674;SDS011;18276;45.520;11.018;2022-08-04T05:41:41;15.85;;;3.92;;
31674;SDS011;18276;45.520;11.018;2022-08-04T05:44:21;8.30;;;3.65;;
31674;SDS011;18276;45.520;11.018;2022-08-04T05:46:50;12.35;;;3.70;;
31674;SDS011;18276;45.520;11.018;2022-08-04T05:49:23;8.57;;;2.97;;
31674;SDS011;18276;45.520;11.018;2022-08-04T05:51:56;4.07;;;3.30;;
31674;SDS011;18276;45.520;11.018;2022-08-04T05:54:26;8.68;;;3.63;;
31674;SDS011;18276;45.520;11.018;2022-08-04T05:56:56;24.80;;;5.47;;
31674;SDS011;18276;45.520;11.018;2022-08-04T05:59:24;24.10;;;4.75;;
31674;SDS011;18276;45.520;11.018;2022-08-04T06:01:54;28.02;;;5.00;;
31674;SDS011;18276;45.520;11.018;2022-08-04T06:04:24;30.38;;;5.43;;
31674;SDS011;18276;45.520;11.018;2022-08-04T06:06:57;23.10;;;4.32;;
31674;SDS011;18276;45.520;11.018;2022-08-04T06:09:24;22.92;;;5.13;;
31674;SDS011;18276;45.520;11.018;2022-08-04T06:11:52;14.20;;;3.53;;
31674;SDS011;18276;45.520;11.018;2022-08-04T06:14:32;22.40;;;3.85;;
31674;SDS011;18276;45.520;11.018;2022-08-04T06:17:07;19.27;;;3.90;;
31674;SDS011;18276;45.520;11.018;2022-08-04T06:19:56;16.95;;;3.53;;
31674;SDS011;18276;45.520;11.018;2022-08-04T06:22:48;7.85;;;3.58;;
31674;SDS011;18276;45.520;11.018;2022-08-04T06:25:18;14.23;;;3.58;;
31674;SDS011;18276;45.520;11.018;2022-08-04T06:27:49;17.38;;;4.28;;
31674;SDS011;18276;45.520;11.018;2022-08-04T06:30:17;7.43;;;3.72;;
31674;SDS011;18276;45.520;11.018;2022-08-04T06:32:45;11.88;;;3.22;;
31674;SDS011;18276;45.520;11.018;2022-08-04T06:35:30;6.70;;;2.72;;
31674;SDS011;18276;45.520;11.018;2022-08-04T06:37:58;8.25;;;3.45;;
31674;SDS011;18276;45.520;11.018;2022-08-04T06:40:27;3.70;;;2.90;;
31674;SDS011;18276;45.520;11.018;2022-08-04T06:43:00;7.57;;;3.38;;
31674;SDS011;18276;45.520;11.018;2022-08-04T06:45:29;5.75;;;3.28;;
31674;SDS011;18276;45.520;11.018;2022-08-04T06:48:00;6.03;;;2.97;;
31674;SDS011;18276;45.520;11.018;2022-08-04T06:50:28;7.28;;;3.08;;
31674;SDS011;18276;45.520;11.018;2022-08-04T06:53:17;4.40;;;3.03;;
31674;SDS011;18276;45.520;11.018;2022-08-04T06:55:45;4.53;;;2.78;;
31674;SDS011;18276;45.520;11.018;2022-08-04T06:58:12;5.20;;;2.88;;
31674;SDS011;18276;45.520;11.018;2022-08-04T07:00:42;5.53;;;2.78;;
31674;SDS011;18276;45.520;11.018;2022-08-04T07:03:12;7.13;;;2.88;;
31674;SDS011;18276;45.520;11.018;2022-08-04T07:05:40;10.68;;;2.80;;
31674;SDS011;18276;45.520;11.018;2022-08-04T07:08:09;4.93;;;3.10;;
31674;SDS011;18276;45.520;11.018;2022-08-04T07:10:37;6.50;;;2.83;;
31674;SDS011;18276;45.520;11.018;2022-08-04T07:13:05;5.65;;;2.70;;
31674;SDS011;18276;45.520;11.018;2022-08-04T07:15:33;6.43;;;2.78;;
31674;SDS011;18276;45.520;11.018;2022-08-04T07:18:02;3.38;;;2.80;;
31674;SDS011;18276;45.520;11.018;2022-08-04T07:20:31;13.45;;;3.25;;
31674;SDS011;18276;45.520;11.018;2022-08-04T07:23:05;6.88;;;2.95;;
31674;SDS011;18276;45.520;11.018;2022-08-04T07:25:34;6.05;;;2.42;;
31674;SDS011;18276;45.520;11.018;2022-08-04T07:28:24;4.43;;;2.50;;
31674;SDS011;18276;45.520;11.018;2022-08-04T07:30:53;3.50;;;2.53;;
31674;SDS011;18276;45.520;11.018;2022-08-04T07:33:22;5.65;;;2.80;;
31674;SDS011;18276;45.520;11.018;2022-08-04T07:35:53;3.03;;;2.65;;
31674;SDS011;18276;45.520;11.018;2022-08-04T07:38:39;5.15;;;2.70;;
31674;SDS011;18276;45.520;11.018;2022-08-04T07:41:20;6.68;;;2.55;;
31674;SDS011;18276;45.520;11.018;2022-08-04T07:44:05;4.97;;;2.55;;
31674;SDS011;18276;45.520;11.018;2022-08-04T07:46:36;2.53;;;2.20;;
31674;SDS011;18276;45.520;11.018;2022-08-04T07:49:04;2.75;;;2.25;;
31674;SDS011;18276;45.520;11.018;2022-08-04T07:51:32;2.35;;;2.15;;
31674;SDS011;18276;45.520;11.018;2022-08-04T07:54:01;2.50;;;2.20;;
31674;SDS011;18276;45.520;11.018;2022-08-04T07:56:31;5.30;;;2.88;;
31674;SDS011;18276;45.520;11.018;2022-08-04T07:59:00;6.90;;;2.72;;
31674;SDS011;18276;45.520;11.018;2022-08-04T08:02:00;3.45;;;2.63;;
31674;SDS011;18276;45.520;11.018;2022-08-04T08:04:28;5.05;;;2.20;;
31674;SDS011;18276;45.520;11.018;2022-08-04T08:06:58;6.50;;;2.78;;
31674;SDS011;18276;45.520;11.018;2022-08-04T08:09:25;4.05;;;2.47;;
31674;SDS011;18276;45.520;11.018;2022-08-04T08:11:52;3.78;;;2.78;;
31674;SDS011;18276;45.520;11.018;2022-08-04T08:14:40;3.97;;;2.30;;
31674;SDS011;18276;45.520;11.018;2022-08-04T08:17:08;3.13;;;2.38;;
31674;SDS011;18276;45.520;11.018;2022-08-04T08:19:35;4.35;;;2.60;;
31674;SDS011;18276;45.520;11.018;2022-08-04T08:22:03;5.32;;;2.47;;
31674;SDS011;18276;45.520;11.018;2022-08-04T08:24:34;3.63;;;2.53;;
31674;SDS011;18276;45.520;11.018;2022-08-04T08:27:03;6.22;;;2.83;;
31674;SDS011;18276;45.520;11.018;2022-08-04T08:29:32;4.15;;;2.80;;
31674;SDS011;18276;45.520;11.018;2022-08-04T08:32:01;5.13;;;2.95;;
31674;SDS011;18276;45.520;11.018;2022-08-04T08:34:34;5.70;;;2.80;;
31674;SDS011;18276;45.520;11.018;2022-08-04T08:47:03;4.63;;;2.42;;
31674;SDS011;18276;45.520;11.018;2022-08-04T08:50:23;5.82;;;2.42;;
31674;SDS011;18276;45.520;11.018;2022-08-04T09:01:27;3.53;;;2.38;;
31674;SDS011;18276;45.520;11.018;2022-08-04T09:07:26;5.28;;;2.60;;
31674;SDS011;18276;45.520;11.018;2022-08-04T09:13:21;2.40;;;2.15;;
31674;SDS011;18276;45.520;11.018;2022-08-04T09:18:28;5.93;;;2.55;;
31674;SDS011;18276;45.520;11.018;2022-08-04T09:27:00;3.85;;;2.70;;
31674;SDS011;18276;45.520;11.018;2022-08-04T09:38:18;8.60;;;2.50;;
31674;SDS011;18276;45.520;11.018;2022-08-04T09:44:25;4.22;;;2.63;;
31674;SDS011;18276;45.520;11.018;2022-08-04T09:47:41;5.20;;;3.43;;
31674;SDS011;18276;45.520;11.018;2022-08-04T09:55:30;4.85;;;2.55;;
31674;SDS011;18276;45.520;11.018;2022-08-04T10:01:00;3.15;;;2.58;;
31674;SDS011;18276;45.520;11.018;2022-08-04T10:03:32;4.40;;;2.80;;
31674;SDS011;18276;45.520;11.018;2022-08-04T10:20:02;3.42;;;2.78;;
31674;SDS011;18276;45.520;11.018;2022-08-04T10:22:37;5.25;;;2.80;;
31674;SDS011;18276;45.520;11.018;2022-08-04T10:28:35;4.75;;;2.58;;
31674;SDS011;18276;45.520;11.018;2022-08-04T10:31:12;2.92;;;2.38;;
31674;SDS011;18276;45.520;11.018;2022-08-04T10:33:49;2.83;;;2.50;;
31674;SDS011;18276;45.520;11.018;2022-08-04T10:36:27;4.15;;;2.33;;
31674;SDS011;18276;45.520;11.018;2022-08-04T10:39:06;3.67;;;3.03;;
31674;SDS011;18276;45.520;11.018;2022-08-04T10:47:30;4.13;;;2.65;;
31674;SDS011;18276;45.520;11.018;2022-08-04T10:50:03;4.22;;;3.00;;
31674;SDS011;18276;45.520;11.018;2022-08-04T10:52:41;3.38;;;2.78;;
31674;SDS011;18276;45.520;11.018;2022-08-04T10:55:19;4.80;;;3.20;;
31674;SDS011;18276;45.520;11.018;2022-08-04T10:58:15;4.15;;;3.35;;
31674;SDS011;18276;45.520;11.018;2022-08-04T11:00:46;3.45;;;3.10;;
31674;SDS011;18276;45.520;11.018;2022-08-04T11:03:22;2.83;;;2.63;;
31674;SDS011;18276;45.520;11.018;2022-08-04T11:05:57;3.20;;;2.93;;
31674;SDS011;18276;45.520;11.018;2022-08-04T11:08:46;4.13;;;3.00;;
31674;SDS011;18276;45.520;11.018;2022-08-04T11:14:32;3.20;;;3.00;;
31674;SDS011;18276;45.520;11.018;2022-08-04T11:17:15;5.30;;;3.28;;
31674;SDS011;18276;45.520;11.018;2022-08-04T11:20:36;5.18;;;3.25;;
31674;SDS011;18276;45.520;11.018;2022-08-04T11:23:06;5.32;;;3.22;;
31674;SDS011;18276;45.520;11.018;2022-08-04T11:25:50;3.53;;;3.10;;
31674;SDS011;18276;45.520;11.018;2022-08-04T11:29:08;4.57;;;3.72;;
31674;SDS011;18276;45.520;11.018;2022-08-04T11:31:35;3.42;;;3.03;;
31674;SDS011;18276;45.520;11.018;2022-08-04T11:39:44;5.88;;;3.03;;
31674;SDS011;18276;45.520;11.018;2022-08-04T11:42:20;5.78;;;2.97;;
31674;SDS011;18276;45.520;11.018;2022-08-04T11:50:03;5.18;;;3.00;;
31674;SDS011;18276;45.520;11.018;2022-08-04T11:52:37;5.10;;;3.25;;
31674;SDS011;18276;45.520;11.018;2022-08-04T11:55:07;5.53;;;3.13;;
31674;SDS011;18276;45.520;11.018;2022-08-04T11:57:36;6.68;;;3.15;;
31674;SDS011;18276;45.520;11.018;2022-08-04T12:00:04;3.75;;;3.45;;
31674;SDS011;18276;45.520;11.018;2022-08-04T12:05:24;3.97;;;2.78;;
31674;SDS011;18276;45.520;11.018;2022-08-04T12:08:25;4.65;;;3.42;;
31674;SDS011;18276;45.520;11.018;2022-08-04T12:17:12;4.28;;;2.80;;
31674;SDS011;18276;45.520;11.018;2022-08-04T12:19:52;4.22;;;3.33;;
31674;SDS011;18276;45.520;11.018;2022-08-04T12:22:44;3.67;;;3.15;;
31674;SDS011;18276;45.520;11.018;2022-08-04T12:25:25;6.05;;;3.45;;
31674;SDS011;18276;45.520;11.018;2022-08-04T12:28:07;2.88;;;2.67;;
31674;SDS011;18276;45.520;11.018;2022-08-04T12:30:48;4.05;;;2.90;;
31674;SDS011;18276;45.520;11.018;2022-08-04T12:33:39;5.70;;;2.92;;
31674;SDS011;18276;45.520;11.018;2022-08-04T12:39:19;4.75;;;2.90;;
31674;SDS011;18276;45.520;11.018;2022-08-04T12:41:55;3.10;;;2.88;;
31674;SDS011;18276;45.520;11.018;2022-08-04T12:44:30;4.95;;;4.50;;
31674;SDS011;18276;45.520;11.018;2022-08-04T12:47:06;4.03;;;3.17;;
31674;SDS011;18276;45.520;11.018;2022-08-04T12:52:30;7.80;;;2.97;;
31674;SDS011;18276;45.520;11.018;2022-08-04T12:55:22;4.27;;;3.40;;
31674;SDS011;18276;45.520;11.018;2022-08-04T12:57:52;4.65;;;2.75;;
31674;SDS011;18276;45.520;11.018;2022-08-04T13:00:27;6.03;;;2.60;;
31674;SDS011;18276;45.520;11.018;2022-08-04T13:03:06;4.22;;;2.78;;
31674;SDS011;18276;45.520;11.018;2022-08-04T13:05:39;5.88;;;3.13;;
31674;SDS011;18276;45.520;11.018;2022-08-04T13:08:08;3.10;;;2.80;;
31674;SDS011;18276;45.520;11.018;2022-08-04T13:10:42;3.97;;;2.47;;
31674;SDS011;18276;45.520;11.018;2022-08-04T13:13:16;6.85;;;2.90;;
31674;SDS011;18276;45.520;11.018;2022-08-04T13:15:53;3.30;;;2.90;;
31674;SDS011;18276;45.520;11.018;2022-08-04T13:18:27;4.72;;;2.83;;
31674;SDS011;18276;45.520;11.018;2022-08-04T13:21:06;4.47;;;2.63;;
31674;SDS011;18276;45.520;11.018;2022-08-04T13:23:48;3.63;;;2.85;;
31674;SDS011;18276;45.520;11.018;2022-08-04T13:26:37;7.38;;;3.33;;
31674;SDS011;18276;45.520;11.018;2022-08-04T13:29:26;5.47;;;2.50;;
31674;SDS011;18276;45.520;11.018;2022-08-04T13:32:26;4.78;;;2.78;;
31674;SDS011;18276;45.520;11.018;2022-08-04T13:34:55;4.10;;;2.88;;
31674;SDS011;18276;45.520;11.018;2022-08-04T13:37:29;4.60;;;2.67;;
31674;SDS011;18276;45.520;11.018;2022-08-04T13:40:01;5.25;;;3.10;;
31674;SDS011;18276;45.520;11.018;2022-08-04T13:42:32;3.25;;;2.28;;
31674;SDS011;18276;45.520;11.018;2022-08-04T13:45:01;4.32;;;2.67;;
31674;SDS011;18276;45.520;11.018;2022-08-04T13:47:32;8.10;;;3.00;;
31674;SDS011;18276;45.520;11.018;2022-08-04T13:52:53;3.42;;;2.70;;
31674;SDS011;18276;45.520;11.018;2022-08-04T14:03:12;6.10;;;2.97;;
31674;SDS011;18276;45.520;11.018;2022-08-04T14:08:48;3.70;;;2.90;;
31674;SDS011;18276;45.520;11.018;2022-08-04T14:11:30;5.50;;;3.35;;
31674;SDS011;18276;45.520;11.018;2022-08-04T14:14:27;7.88;;;3.17;;
31674;SDS011;18276;45.520;11.018;2022-08-04T14:17:12;4.38;;;2.92;;
31674;SDS011;18276;45.520;11.018;2022-08-04T14:19:59;3.72;;;2.97;;
31674;SDS011;18276;45.520;11.018;2022-08-04T14:28:01;3.78;;;2.60;;
31674;SDS011;18276;45.520;11.018;2022-08-04T14:30:32;5.22;;;3.25;;
31674;SDS011;18276;45.520;11.018;2022-08-04T14:35:55;4.03;;;2.95;;
31674;SDS011;18276;45.520;11.018;2022-08-04T14:38:24;3.60;;;2.70;;
31674;SDS011;18276;45.520;11.018;2022-08-04T14:41:26;5.90;;;2.90;;
31674;SDS011;18276;45.520;11.018;2022-08-04T14:43:56;4.25;;;3.05;;
31674;SDS011;18276;45.520;11.018;2022-08-04T14:46:25;5.03;;;2.80;;
31674;SDS011;18276;45.520;11.018;2022-08-04T14:49:09;3.80;;;2.80;;
31674;SDS011;18276;45.520;11.018;2022-08-04T14:51:39;4.70;;;2.97;;
31674;SDS011;18276;45.520;11.018;2022-08-04T14:54:08;5.22;;;2.50;;
31674;SDS011;18276;45.520;11.018;2022-08-04T14:56:50;7.78;;;2.92;;
31674;SDS011;18276;45.520;11.018;2022-08-04T14:59:19;4.85;;;2.72;;
31674;SDS011;18276;45.520;11.018;2022-08-04T15:01:47;4.78;;;2.58;;
31674;SDS011;18276;45.520;11.018;2022-08-04T15:04:27;4.75;;;2.92;;
31674;SDS011;18276;45.520;11.018;2022-08-04T15:06:56;5.15;;;2.63;;
31674;SDS011;18276;45.520;11.018;2022-08-04T15:09:24;5.40;;;2.90;;
31674;SDS011;18276;45.520;11.018;2022-08-04T15:11:52;4.28;;;2.63;;
31674;SDS011;18276;45.520;11.018;2022-08-04T15:14:20;2.83;;;2.47;;
31674;SDS011;18276;45.520;11.018;2022-08-04T15:17:03;3.25;;;2.58;;
31674;SDS011;18276;45.520;11.018;2022-08-04T15:19:37;3.33;;;2.50;;
31674;SDS011;18276;45.520;11.018;2022-08-04T15:22:05;3.92;;;2.80;;
31674;SDS011;18276;45.520;11.018;2022-08-04T15:24:43;3.05;;;2.75;;
31674;SDS011;18276;45.520;11.018;2022-08-04T15:27:17;3.58;;;2.70;;
31674;SDS011;18276;45.520;11.018;2022-08-04T15:29:46;4.63;;;3.08;;
31674;SDS011;18276;45.520;11.018;2022-08-04T15:32:28;8.02;;;2.80;;
31674;SDS011;18276;45.520;11.018;2022-08-04T15:35:11;4.00;;;2.63;;
31674;SDS011;18276;45.520;11.018;2022-08-04T15:38:08;9.32;;;2.67;;
31674;SDS011;18276;45.520;11.018;2022-08-04T15:46:06;4.18;;;2.40;;
31674;SDS011;18276;45.520;11.018;2022-08-04T15:48:53;5.50;;;3.03;;
31674;SDS011;18276;45.520;11.018;2022-08-04T15:51:26;4.90;;;2.50;;
31674;SDS011;18276;45.520;11.018;2022-08-04T15:58:56;4.07;;;2.38;;
31674;SDS011;18276;45.520;11.018;2022-08-04T16:01:24;5.35;;;2.55;;
31674;SDS011;18276;45.520;11.018;2022-08-04T16:03:53;4.05;;;2.65;;
31674;SDS011;18276;45.520;11.018;2022-08-04T16:08:59;2.55;;;2.35;;
31674;SDS011;18276;45.520;11.018;2022-08-04T16:24:28;3.78;;;2.50;;
31674;SDS011;18276;45.520;11.018;2022-08-04T16:27:01;4.60;;;2.45;;
31674;SDS011;18276;45.520;11.018;2022-08-04T16:29:34;2.58;;;2.33;;
31674;SDS011;18276;45.520;11.018;2022-08-04T16:34:31;3.30;;;2.45;;
31674;SDS011;18276;45.520;11.018;2022-08-04T16:37:16;2.83;;;2.35;;
31674;SDS011;18276;45.520;11.018;2022-08-04T16:39:46;2.63;;;2.38;;
31674;SDS011;18276;45.520;11.018;2022-08-04T16:50:13;4.63;;;2.67;;
31674;SDS011;18276;45.520;11.018;2022-08-04T16:52:41;2.28;;;1.90;;
31674;SDS011;18276;45.520;11.018;2022-08-04T16:55:19;3.17;;;2.80;;
31674;SDS011;18276;45.520;11.018;2022-08-04T16:57:49;4.03;;;2.90;;
31674;SDS011;18276;45.520;11.018;2022-08-04T17:00:26;2.70;;;2.50;;
31674;SDS011;18276;45.520;11.018;2022-08-04T17:02:56;2.72;;;2.10;;
31674;SDS011;18276;45.520;11.018;2022-08-04T17:05:23;5.32;;;2.45;;
31674;SDS011;18276;45.520;11.018;2022-08-04T17:08:05;3.67;;;2.60;;
31674;SDS011;18276;45.520;11.018;2022-08-04T17:10:54;3.38;;;2.25;;
31674;SDS011;18276;45.520;11.018;2022-08-04T17:16:15;3.85;;;2.97;;
31674;SDS011;18276;45.520;11.018;2022-08-04T17:18:51;5.50;;;2.38;;
31674;SDS011;18276;45.520;11.018;2022-08-04T17:23:51;4.28;;;2.63;;
31674;SDS011;18276;45.520;11.018;2022-08-04T17:26:40;3.67;;;2.70;;
31674;SDS011;18276;45.520;11.018;2022-08-04T17:29:10;6.55;;;2.42;;
31674;SDS011;18276;45.520;11.018;2022-08-04T17:31:45;6.38;;;2.88;;
31674;SDS011;18276;45.520;11.018;2022-08-04T17:34:13;3.83;;;2.13;;
31674;SDS011;18276;45.520;11.018;2022-08-04T17:37:01;3.58;;;2.50;;
31674;SDS011;18276;45.520;11.018;2022-08-04T17:39:51;7.95;;;2.30;;
31674;SDS011;18276;45.520;11.018;2022-08-04T17:42:35;4.07;;;2.15;;
31674;SDS011;18276;45.520;11.018;2022-08-04T17:45:09;3.30;;;2.33;;
31674;SDS011;18276;45.520;11.018;2022-08-04T17:48:05;2.20;;;2.00;;
31674;SDS011;18276;45.520;11.018;2022-08-04T17:50:34;4.75;;;2.03;;
31674;SDS011;18276;45.520;11.018;2022-08-04T17:53:08;5.50;;;2.25;;
31674;SDS011;18276;45.520;11.018;2022-08-04T17:55:42;5.05;;;2.13;;
31674;SDS011;18276;45.520;11.018;2022-08-04T17:58:32;3.25;;;2.60;;
31674;SDS011;18276;45.520;11.018;2022-08-04T18:00:59;3.45;;;2.45;;
31674;SDS011;18276;45.520;11.018;2022-08-04T18:03:47;6.30;;;2.70;;
31674;SDS011;18276;45.520;11.018;2022-08-04T18:06:18;3.85;;;2.30;;
31674;SDS011;18276;45.520;11.018;2022-08-04T18:08:50;5.57;;;2.63;;
31674;SDS011;18276;45.520;11.018;2022-08-04T18:11:50;3.80;;;2.40;;
31674;SDS011;18276;45.520;11.018;2022-08-04T18:14:21;5.43;;;2.47;;
31674;SDS011;18276;45.520;11.018;2022-08-04T18:16:54;3.75;;;2.40;;
31674;SDS011;18276;45.520;11.018;2022-08-04T18:19:21;3.63;;;2.17;;
31674;SDS011;18276;45.520;11.018;2022-08-04T18:21:49;7.50;;;2.40;;
31674;SDS011;18276;45.520;11.018;2022-08-04T18:24:30;5.93;;;2.70;;
31674;SDS011;18276;45.520;11.018;2022-08-04T18:27:20;4.95;;;2.58;;
31674;SDS011;18276;45.520;11.018;2022-08-04T18:29:50;8.05;;;2.90;;
31674;SDS011;18276;45.520;11.018;2022-08-04T18:32:38;7.93;;;2.80;;
31674;SDS011;18276;45.520;11.018;2022-08-04T18:35:26;4.18;;;2.70;;
31674;SDS011;18276;45.520;11.018;2022-08-04T18:38:14;7.90;;;2.40;;
31674;SDS011;18276;45.520;11.018;2022-08-04T18:40:48;13.43;;;3.13;;
31674;SDS011;18276;45.520;11.018;2022-08-04T18:43:20;8.50;;;2.85;;
31674;SDS011;18276;45.520;11.018;2022-08-04T18:45:56;7.68;;;2.92;;
31674;SDS011;18276;45.520;11.018;2022-08-04T18:48:26;7.13;;;3.97;;
31674;SDS011;18276;45.520;11.018;2022-08-04T18:51:01;8.02;;;3.05;;
31674;SDS011;18276;45.520;11.018;2022-08-04T18:53:44;9.45;;;2.95;;
31674;SDS011;18276;45.520;11.018;2022-08-04T18:56:23;7.50;;;2.92;;
31674;SDS011;18276;45.520;11.018;2022-08-04T18:59:00;4.32;;;2.70;;
31674;SDS011;18276;45.520;11.018;2022-08-04T19:01:29;8.82;;;4.00;;
31674;SDS011;18276;45.520;11.018;2022-08-04T19:04:16;4.88;;;2.80;;
31674;SDS011;18276;45.520;11.018;2022-08-04T19:07:03;6.63;;;2.97;;
31674;SDS011;18276;45.520;11.018;2022-08-04T19:09:51;9.68;;;3.03;;
31674;SDS011;18276;45.520;11.018;2022-08-04T19:12:23;9.13;;;3.17;;
31674;SDS011;18276;45.520;11.018;2022-08-04T19:14:53;22.85;;;4.35;;
31674;SDS011;18276;45.520;11.018;2022-08-04T19:17:37;8.70;;;3.75;;
31674;SDS011;18276;45.520;11.018;2022-08-04T19:20:23;6.95;;;3.13;;
31674;SDS011;18276;45.520;11.018;2022-08-04T19:22:52;12.20;;;3.10;;
31674;SDS011;18276;45.520;11.018;2022-08-04T19:25:40;13.10;;;3.42;;
31674;SDS011;18276;45.520;11.018;2022-08-04T19:28:28;13.80;;;3.53;;
31674;SDS011;18276;45.520;11.018;2022-08-04T19:31:02;8.50;;;2.95;;
31674;SDS011;18276;45.520;11.018;2022-08-04T19:33:33;7.82;;;3.00;;
31674;SDS011;18276;45.520;11.018;2022-08-04T19:36:21;7.22;;;2.88;;
31674;SDS011;18276;45.520;11.018;2022-08-04T19:38:57;5.40;;;2.92;;
31674;SDS011;18276;45.520;11.018;2022-08-04T19:41:27;7.55;;;3.15;;
31674;SDS011;18276;45.520;11.018;2022-08-04T19:44:21;7.15;;;3.35;;
31674;SDS011;18276;45.520;11.018;2022-08-04T19:46:49;8.25;;;3.13;;
31674;SDS011;18276;45.520;11.018;2022-08-04T19:49:18;9.43;;;3.17;;
31674;SDS011;18276;45.520;11.018;2022-08-04T19:52:05;5.03;;;2.88;;
31674;SDS011;18276;45.520;11.018;2022-08-04T19:54:32;5.43;;;3.47;;
31674;SDS011;18276;45.520;11.018;2022-08-04T19:57:00;3.80;;;2.83;;
31674;SDS011;18276;45.520;11.018;2022-08-04T19:59:27;5.80;;;3.25;;
31674;SDS011;18276;45.520;11.018;2022-08-04T20:01:57;3.10;;;2.80;;
31674;SDS011;18276;45.520;11.018;2022-08-04T20:04:26;8.50;;;3.40;;
31674;SDS011;18276;45.520;11.018;2022-08-04T20:06:56;7.55;;;3.15;;
31674;SDS011;18276;45.520;11.018;2022-08-04T20:09:23;4.63;;;3.20;;
31674;SDS011;18276;45.520;11.018;2022-08-04T20:11:53;6.20;;;2.90;;
31674;SDS011;18276;45.520;11.018;2022-08-04T20:14:21;6.85;;;3.20;;
31674;SDS011;18276;45.520;11.018;2022-08-04T20:16:58;6.20;;;3.05;;
31674;SDS011;18276;45.520;11.018;2022-08-04T20:19:26;4.53;;;2.88;;
31674;SDS011;18276;45.520;11.018;2022-08-04T20:21:56;5.30;;;2.88;;
31674;SDS011;18276;45.520;11.018;2022-08-04T20:24:23;4.75;;;2.60;;
31674;SDS011;18276;45.520;11.018;2022-08-04T20:27:09;5.57;;;2.70;;
31674;SDS011;18276;45.520;11.018;2022-08-04T20:29:45;3.38;;;2.80;;
31674;SDS011;18276;45.520;11.018;2022-08-04T20:32:18;3.83;;;2.70;;
31674;SDS011;18276;45.520;11.018;2022-08-04T20:34:48;6.80;;;3.35;;